This is the latest recevied weather packets stored in our database for station/object WMKN. If no packets are shown the sender has not sent any weather packets the latest 10 day(s).
| Time | Temp. | Humidity | Pressure | Rain* | Wind** | Luminosity | Snow |
|---|---|---|---|---|---|---|---|
| 1777583438 | 26.67° C | 94% | 1008 hPa | - | - | - | - |
| 1777579825 | 27.78° C | 88% | 1008 hPa | - | - | - | - |
| 1777576224 | 27.78° C | 88% | 1009 hPa | - | - | - | - |
| 1777572624 | 28.89° C | 83% | 1010 hPa | - | - | - | - |
| 1777565424 | 28.89° C | 79% | 1011 hPa | - | - | - | - |
| 1777558224 | 30° C | 79% | 1010 hPa | - | - | - | - |
| 1777554636 | 30.56° C | 74% | 1009 hPa | - | - | - | - |
| 1777551024 | 30.56° C | 74% | 1008 hPa | - | - | - | - |
| 1777547424 | 31.67° C | 66% | 1007 hPa | - | - | - | - |
| 1777543823 | 32.78° C | 62% | 1007 hPa | - | - | - | - |
| 1777540236 | 32.78° C | 62% | 1007 hPa | - | - | - | - |
| 1777536623 | 33.89° C | 59% | 1008 hPa | - | - | - | - |
| 1777533020 | 33.89° C | 59% | 1008 hPa | - | - | - | - |
| 1777529423 | 33.89° C | 63% | 1009 hPa | - | - | - | - |
| 1777525835 | 32.78° C | 62% | 1010 hPa | - | - | - | - |
| 1777522219 | 32.78° C | 62% | 1010 hPa | - | - | - | - |
| 1777518623 | 32.78° C | 62% | 1011 hPa | - | - | - | - |
| 1777515023 | 30.56° C | 70% | 1010 hPa | - | - | - | - |
| 1777511423 | 28.89° C | 79% | 1010 hPa | - | - | - | - |
| 1777507843 | 26.67° C | 88% | 1009 hPa | - | - | - | - |
| 1777459196 | 31.67° C | 70% | 1006 hPa | - | - | - | - |
| 1777457435 | 31.67° C | 70% | 1006 hPa | - | - | - | - |
| 1777453821 | 31.67° C | 70% | 1006 hPa | - | - | - | - |
| 1777450225 | 32.78° C | 66% | 1007 hPa | - | - | - | - |
| 1777446621 | 32.78° C | 66% | 1008 hPa | - | - | - | - |
* Rain since midnight (hover to see other rain measurements)
** Current wind speed in m/s (hover to see current wind gust speed)